Stations météo

réclame
Mon MeteoGroup
Burgos/Villafria, Espagne (8075): Température de l'air & dewpoint: 15.10.2017 21:00:00 - 21.10.2017 21:00:00 (CEST)Burgos/Villafria, Espagne (8075): Vitesse du vent: 15.10.2017 21:00:00 - 21.10.2017 21:00:00 (CEST)Burgos/Villafria, Espagne (8075): Direction du vent: 15.10.2017 21:00:00 - 21.10.2017 21:00:00 (CEST)Burgos/Villafria, Espagne (8075): visibility: 15.10.2017 21:00:00 - 21.10.2017 21:00:00 (CEST)Burgos/Villafria, Espagne (8075): Quantités de précipitations: 15.10.2017 21:00:00 - 21.10.2017 21:00:00 (CEST)
Date & Time tt [°C] td [°C] ff [km/h] ff [knt] dd vv [km] rr [mm]
21.10.2017 21:00:00 10,4 7,6 18 10 NE - 0,0
21.10.2017 20:00:00 11,0 7,3 28 15 ENE 40 -
21.10.2017 19:00:00 13,8 7,1 11 6 NNW 10 0,0
21.10.2017 18:00:00 16,4 2,0 13 7 W 10 0,0
21.10.2017 17:00:00 16,5 1,4 16 9 WSW 65 -
21.10.2017 16:00:00 17,0 1,4 24 13 WSW 10 0,0
21.10.2017 15:00:00 17,3 3,2 21 11 W 10 0,0
21.10.2017 14:00:00 17,3 6,8 22 12 WSW 60 -
21.10.2017 13:00:00 15,4 9,3 22 12 W 10 0,0
21.10.2017 12:00:00 14,9 10,9 21 11 W 10 0,0
21.10.2017 11:00:00 14,0 12,4 16 9 W 55 -
21.10.2017 10:00:00 13,8 12,9 22 12 SSW 10 0,0
21.10.2017 09:00:00 13,7 12,8 16 9 SSW 10 0,0
21.10.2017 08:00:00 13,9 12,6 16 9 SSW 50 -
21.10.2017 07:00:00 14,0 12,7 18 10 SSW 10 0,0
21.10.2017 06:00:00 14,0 12,7 15 8 SSW 10 0,0
21.10.2017 05:00:00 13,9 12,8 15 8 SW 10 -
21.10.2017 04:00:00 14,3 13,0 15 8 SW 10 0,0
21.10.2017 03:00:00 14,8 13,2 21 11 SW 10 0,0
21.10.2017 02:00:00 15,1 13,3 22 12 SSW 10 -
21.10.2017 01:00:00 15,0 13,0 24 13 SSW 10 0,0
21.10.2017 00:00:00 15,7 12,8 24 13 SSW 10 0,0
20.10.2017 23:00:00 15,7 12,8 21 11 SSW 10 -
20.10.2017 22:00:00 15,9 12,1 18 10 SSW 10 0,0
20.10.2017 21:00:00 16,5 9,4 16 9 S 10 0,0
20.10.2017 20:00:00 15,6 8,6 13 7 S 50 -
20.10.2017 19:00:00 18,0 8,5 16 9 SSW 10 0,0
20.10.2017 18:00:00 19,0 8,0 22 12 SW 10 0,0
20.10.2017 17:00:00 19,0 8,0 24 13 SSW 65 -
20.10.2017 16:00:00 18,3 8,8 24 13 SSW 10 0,0
20.10.2017 15:00:00 17,2 8,9 28 15 SW 10 0,0
20.10.2017 14:00:00 15,6 9,0 26 14 SW 50 -
20.10.2017 13:00:00 15,6 9,7 22 12 SSW 10 0,0
20.10.2017 12:00:00 14,7 11,5 18 10 SSW 10 0,0
20.10.2017 11:00:00 13,3 11,5 18 10 SSW 18 -
20.10.2017 10:00:00 11,9 11,1 21 11 SSW 9 0,0
20.10.2017 09:00:00 11,5 10,9 16 9 SW 10 0,0
20.10.2017 08:00:00 11,2 10,7 16 9 SSW 7 -
20.10.2017 07:00:00 11,0 10,5 16 9 SSW 5 0,0
20.10.2017 06:00:00 10,9 10,3 16 9 S 4,2 0,0
20.10.2017 05:00:00 11,1 9,7 16 9 SSW 10 -
20.10.2017 04:00:00 11,0 9,3 16 9 S 10 0,0
20.10.2017 03:00:00 10,8 8,7 16 9 S 10 0,0
20.10.2017 02:00:00 10,6 8,4 13 7 SSW 10 -
20.10.2017 01:00:00 10,3 7,7 13 7 SW 10 0,0
20.10.2017 00:00:00 11,2 7,9 13 7 SW 10 0,0
19.10.2017 23:00:00 11,6 7,5 13 7 SW 10 -
19.10.2017 22:00:00 11,6 7,1 13 7 S 10 0,0
19.10.2017 21:00:00 11,6 7,3 11 6 S 10 0,0
19.10.2017 20:00:00 11,6 6,5 13 7 SSW 20 -
19.10.2017 19:00:00 12,8 6,4 13 7 SSW 10 0,0
19.10.2017 18:00:00 14,4 5,2 22 12 SW 10 0,0
19.10.2017 17:00:00 14,4 4,9 24 13 WSW 20 -
19.10.2017 16:00:00 13,8 6,6 21 11 SW 10 0,0
19.10.2017 15:00:00 12,1 7,2 16 9 SSW 10 0,0
19.10.2017 14:00:00 10,5 7,2 16 9 SW 20 -
19.10.2017 13:00:00 9,8 7,0 13 7 SW 10 0,0
19.10.2017 12:00:00 11,0 6,9 9 5 SSW 10 0,0
19.10.2017 11:00:00 8,7 7,3 13 7 WSW 11 -
19.10.2017 10:00:00 7,6 7,2 15 8 WSW 8 0,0
19.10.2017 09:00:00 7,4 7,1 5 3 SSW 4,0 0,0
19.10.2017 08:00:00 8,0 7,4 4 2 SSW 8 -
19.10.2017 07:00:00 8,3 7,7 4 2 WSW 10 0,2
19.10.2017 06:00:00 8,4 7,6 2 1 SSE 10 0,0
19.10.2017 05:00:00 8,3 7,5 4 2 WSW 10 -
19.10.2017 04:00:00 8,2 7,4 4 2 SW 10 0,0
19.10.2017 03:00:00 8,1 7,3 4 2 WSW 10 3,0
19.10.2017 02:00:00 8,4 7,6 8 4 N 10 -
19.10.2017 01:00:00 8,7 8,1 9 5 SSE 10 0,6
19.10.2017 00:00:00 8,9 8,0 16 9 S 9 1,0
18.10.2017 23:00:00 9,3 7,6 16 9 S 10 -
18.10.2017 22:00:00 9,1 7,5 11 6 SSE 10 0,0
18.10.2017 21:00:00 9,3 7,6 15 8 SSE 10 0,0
18.10.2017 20:00:00 10,0 8,1 8 4 SE 25 -
18.10.2017 19:00:00 11,1 8,1 15 8 SSW 10 0,0
18.10.2017 18:00:00 12,7 7,4 13 7 SW 10 0,0
18.10.2017 17:00:00 12,7 7,2 15 8 WSW 20 -
18.10.2017 16:00:00 12,8 8,1 18 10 SW 10 0,0
18.10.2017 15:00:00 11,1 8,1 16 9 SW 10 0,0
18.10.2017 14:00:00 10,8 9,1 21 11 WSW 15 -
18.10.2017 13:00:00 10,3 9,1 11 6 SSW 10 0,8
18.10.2017 12:00:00 9,0 8,0 5 3 S 10 -
18.10.2017 11:00:00 9,4 8,2 8 4 SW 12 -
18.10.2017 10:00:00 9,7 7,6 9 5 SSW 10 0,4
18.10.2017 09:00:00 10,4 7,1 11 6 SSW 10 0,0
18.10.2017 08:00:00 10,6 7,1 11 6 S 15 -
18.10.2017 07:00:00 9,5 7,4 11 6 SSE 10 0,0
18.10.2017 06:00:00 10,5 7,0 8 4 SSE 10 0,0
18.10.2017 05:00:00 11,6 7,9 9 5 SSW 10 -
18.10.2017 04:00:00 11,9 8,6 13 7 S 10 0,0
18.10.2017 03:00:00 12,4 9,0 11 6 SSW 10 0,0
18.10.2017 02:00:00 12,5 9,5 18 10 S 10 -
18.10.2017 01:00:00 12,9 10,3 21 11 S 10 0,0
18.10.2017 00:00:00 13,1 11,0 16 9 S 10 0,0
17.10.2017 23:00:00 13,4 11,8 18 10 SSW 10 -
17.10.2017 22:00:00 13,8 11,8 16 9 SSW 10 1,0
17.10.2017 21:00:00 15,4 10,2 22 12 S 10 0,0
17.10.2017 20:00:00 15,0 10,4 22 12 S 15 -
17.10.2017 19:00:00 15,3 11,1 18 10 S 10 0,0
17.10.2017 18:00:00 15,7 11,3 28 15 S 10 0,2
17.10.2017 17:00:00 17,7 9,3 31 17 S 20 -
17.10.2017 16:00:00 19,1 9,0 31 17 S 10 0,0
17.10.2017 15:00:00 19,5 9,1 22 12 SSW 10 0,0
17.10.2017 14:00:00 20,3 7,3 35 19 SSW 25 -
17.10.2017 13:00:00 20,5 7,1 29 16 SSE 10 0,0
17.10.2017 12:00:00 17,9 6,7 24 13 S 10 0,0
17.10.2017 11:00:00 17,6 6,1 24 13 SSE 20 -
17.10.2017 10:00:00 11,8 9,9 18 10 NNE 10 0,0
17.10.2017 09:00:00 9,5 8,9 9 5 NNE 6 0,0
17.10.2017 08:00:00 9,3 8,2 15 8 NNE 30 -
17.10.2017 07:00:00 10,3 8,4 11 6 NNE 10 0,0
17.10.2017 06:00:00 11,0 8,6 16 9 NE 10 0,0
17.10.2017 05:00:00 11,9 7,4 13 7 NE 10 -
17.10.2017 04:00:00 12,4 6,4 9 5 ENE 10 0,0
17.10.2017 03:00:00 14,6 4,8 9 5 SE 10 0,0
17.10.2017 02:00:00 16,3 5,0 21 11 SSE 10 -
17.10.2017 01:00:00 17,3 4,9 21 11 SSE 10 0,0
17.10.2017 00:00:00 17,7 3,9 18 10 SSE 10 0,0
16.10.2017 23:00:00 17,7 3,9 13 7 SSE 10 -
16.10.2017 22:00:00 16,4 10,0 5 3 NNE 10 0,0
16.10.2017 21:00:00 16,3 10,6 5 3 ENE 10 0,0
16.10.2017 20:00:00 17,6 11,8 15 8 NNE 18 -
16.10.2017 19:00:00 20,5 10,9 21 11 ENE 10 0,0
16.10.2017 18:00:00 22,2 9,7 22 12 ENE 10 0,0
16.10.2017 17:00:00 24,2 9,4 22 12 ENE 25 -
16.10.2017 16:00:00 25,2 8,6 13 7 ENE 10 0,0
16.10.2017 15:00:00 26,6 3,8 15 8 SW 10 0,0
16.10.2017 14:00:00 25,8 4,8 15 8 NNE 10 -
16.10.2017 13:00:00 22,7 9,1 13 7 NNE 10 0,0
16.10.2017 12:00:00 19,9 10,9 13 7 NNE 10 0,0
16.10.2017 11:00:00 16,2 11,8 11 6 NE 12 -
16.10.2017 10:00:00 12,9 12,0 15 8 NE 10 0,0
16.10.2017 09:00:00 11,0 10,7 18 10 NNE 0,9 0,0
16.10.2017 08:00:00 10,8 10,3 9 5 NE 2,5 -
16.10.2017 07:00:00 10,9 10,4 16 9 NNE 4,0 0,0
16.10.2017 06:00:00 11,3 9,6 16 9 NNE 10 0,0
16.10.2017 05:00:00 12,5 9,7 15 8 NNE 10 -
16.10.2017 04:00:00 17,7 5,6 9 5 SSE 10 0,0
16.10.2017 03:00:00 18,4 6,2 22 12 SSE 10 0,0
16.10.2017 02:00:00 18,3 7,1 21 11 SSE 10 -
16.10.2017 01:00:00 17,4 8,5 15 8 SSE 10 0,0
16.10.2017 00:00:00 12,4 10,1 9 5 NE 10 0,0
15.10.2017 23:00:00 13,0 10,5 5 3 NE 10 -
15.10.2017 22:00:00 14,4 11,7 9 5 NE 10 0,0
15.10.2017 21:00:00 16,1 12,1 9 5 NE 10 0,0

tt = Température de l'air
td = dewpoint
ff = Vitesse du vent
dd = Direction du vent
vv = visibility
rr = Quantités de précipitations

stations d'obs. à proximité